createdAt,value
2022-08-27T00:01:23.904Z,9.18
2022-08-27T00:03:53.597Z,8.70
2022-08-27T00:06:21.567Z,9.57
2022-08-27T00:08:49.872Z,8.65
2022-08-27T00:11:19.035Z,8.27
2022-08-27T00:13:46.455Z,9.75
2022-08-27T00:16:15.695Z,9.73
2022-08-27T00:18:48.156Z,10.18
2022-08-27T00:21:17.834Z,10.15
2022-08-27T00:23:45.101Z,9.27
2022-08-27T00:26:13.445Z,9.13
2022-08-27T00:28:42.312Z,8.75
2022-08-27T00:31:11.332Z,8.93
2022-08-27T00:33:39.843Z,9.55
2022-08-27T00:36:07.311Z,9.27
2022-08-27T00:38:34.904Z,9.35
2022-08-27T00:41:01.864Z,9.57
2022-08-27T00:43:45.343Z,9.80
2022-08-27T00:46:19.420Z,9.23
2022-08-27T00:48:47.549Z,9.73
2022-08-27T00:51:14.984Z,10.13
2022-08-27T00:53:41.937Z,8.75
2022-08-27T00:56:13.000Z,9.57
2022-08-27T00:58:42.799Z,9.75
2022-08-27T01:01:13.135Z,8.90
2022-08-27T01:03:41.607Z,9.23
2022-08-27T01:06:16.159Z,9.32
2022-08-27T01:08:54.992Z,9.25
2022-08-27T01:11:22.367Z,9.40
2022-08-27T01:14:00.633Z,9.25
2022-08-27T01:16:36.944Z,9.20
2022-08-27T01:19:09.527Z,9.57
2022-08-27T01:21:46.133Z,9.60
2022-08-27T01:24:24.167Z,9.35
2022-08-27T01:26:51.811Z,8.70
2022-08-27T01:29:19.529Z,9.40
2022-08-27T01:31:46.497Z,9.38
2022-08-27T01:34:13.504Z,9.52
2022-08-27T01:36:40.637Z,9.30
2022-08-27T01:39:08.149Z,8.68
2022-08-27T01:41:35.910Z,9.68
2022-08-27T01:44:04.719Z,9.20
2022-08-27T01:46:31.642Z,9.70
2022-08-27T01:48:58.663Z,9.55
2022-08-27T01:51:25.844Z,10.90
2022-08-27T01:53:53.005Z,9.38
2022-08-27T01:56:19.979Z,9.45
2022-08-27T01:58:47.291Z,9.90
2022-08-27T02:01:18.431Z,9.65
2022-08-27T02:03:47.459Z,9.75
2022-08-27T02:06:14.865Z,9.40
2022-08-27T02:08:42.131Z,9.77
2022-08-27T02:11:10.103Z,10.13
2022-08-27T02:13:37.365Z,9.65
2022-08-27T02:16:05.387Z,9.15
2022-08-27T02:18:32.699Z,10.25
2022-08-27T02:20:59.982Z,10.05
2022-08-27T02:23:26.886Z,9.75
2022-08-27T02:25:54.055Z,10.60
2022-08-27T02:28:21.205Z,10.77
2022-08-27T02:30:48.111Z,9.43
2022-08-27T02:33:15.379Z,10.20
2022-08-27T02:35:44.503Z,9.45
2022-08-27T02:38:13.364Z,10.57
2022-08-27T02:40:40.705Z,10.77
2022-08-27T02:43:08.141Z,10.40
2022-08-27T02:45:36.889Z,10.85
2022-08-27T02:48:08.014Z,9.85
2022-08-27T02:50:35.598Z,10.30
2022-08-27T02:53:04.623Z,10.93
2022-08-27T02:55:31.977Z,10.48
2022-08-27T02:57:59.336Z,10.90
2022-08-27T03:00:28.745Z,10.95
2022-08-27T03:02:56.771Z,11.13
2022-08-27T03:05:24.381Z,11.32
2022-08-27T03:07:51.305Z,10.55
2022-08-27T03:10:20.111Z,10.57
2022-08-27T03:12:48.200Z,11.35
2022-08-27T03:15:17.611Z,10.90
2022-08-27T03:18:03.809Z,10.45
2022-08-27T03:20:31.687Z,9.70
2022-08-27T03:22:59.715Z,10.75
2022-08-27T03:25:26.721Z,10.07
2022-08-27T03:27:53.789Z,11.43
2022-08-27T03:30:22.371Z,11.65
2022-08-27T03:32:51.869Z,11.35
2022-08-27T03:35:20.701Z,11.23
2022-08-27T03:37:48.105Z,10.90
2022-08-27T03:40:16.031Z,11.52
2022-08-27T03:42:43.616Z,11.48
2022-08-27T03:45:11.767Z,11.40
2022-08-27T03:47:38.964Z,11.95
2022-08-27T03:50:07.248Z,11.15
2022-08-27T03:52:35.863Z,11.75
2022-08-27T03:55:04.807Z,11.25
2022-08-27T03:57:32.782Z,11.65
2022-08-27T04:00:01.516Z,10.95
2022-08-27T04:02:28.937Z,11.30
2022-08-27T04:04:57.861Z,11.52
2022-08-27T04:07:25.128Z,11.73
2022-08-27T04:09:52.156Z,12.27
2022-08-27T04:12:19.828Z,11.10
2022-08-27T04:14:47.039Z,11.55
2022-08-27T04:17:14.140Z,12.23
2022-08-27T04:19:41.244Z,12.15
2022-08-27T04:22:08.610Z,11.38
2022-08-27T04:24:38.055Z,12.05
2022-08-27T04:27:06.543Z,12.05
2022-08-27T04:29:33.578Z,11.05
2022-08-27T04:32:01.209Z,11.25
2022-08-27T04:34:29.035Z,11.88
2022-08-27T04:36:56.943Z,11.95
2022-08-27T04:39:24.899Z,11.73
2022-08-27T04:41:56.118Z,12.30
2022-08-27T04:44:24.438Z,12.15
2022-08-27T04:46:56.465Z,11.25
2022-08-27T04:49:24.726Z,11.88
2022-08-27T04:51:52.127Z,11.63
2022-08-27T04:54:19.357Z,12.60
2022-08-27T04:56:53.105Z,11.85
2022-08-27T04:59:20.087Z,11.15
2022-08-27T05:01:48.413Z,12.02
2022-08-27T05:04:18.944Z,11.63
2022-08-27T05:06:46.574Z,11.07
2022-08-27T05:09:14.713Z,11.98
2022-08-27T05:11:42.849Z,11.02
2022-08-27T05:14:13.743Z,12.68
2022-08-27T05:16:40.941Z,11.98
2022-08-27T05:19:11.269Z,11.30
2022-08-27T05:21:40.931Z,12.27
2022-08-27T05:24:08.105Z,12.18
2022-08-27T05:26:37.108Z,11.80
2022-08-27T05:29:06.245Z,11.80
2022-08-27T05:31:35.010Z,11.55
2022-08-27T05:34:03.759Z,11.82
2022-08-27T05:36:38.418Z,11.70
2022-08-27T05:39:17.239Z,11.30
2022-08-27T05:41:44.146Z,11.43
2022-08-27T05:44:39.678Z,11.63
2022-08-27T05:46:58.629Z,10.90
2022-08-27T05:49:26.023Z,10.88
2022-08-27T05:51:53.043Z,11.05
2022-08-27T05:54:20.336Z,11.25
2022-08-27T05:56:50.058Z,11.20
2022-08-27T05:59:36.620Z,11.50
2022-08-27T06:02:06.235Z,10.52
2022-08-27T06:04:33.868Z,10.70
2022-08-27T06:07:01.053Z,10.88
2022-08-27T06:09:29.590Z,10.52
2022-08-27T06:11:58.536Z,11.05
2022-08-27T06:14:26.573Z,10.32
2022-08-27T06:16:54.080Z,10.75
2022-08-27T06:19:21.511Z,10.27
2022-08-27T06:22:00.823Z,10.90
2022-08-27T06:24:36.588Z,10.70
2022-08-27T06:27:03.677Z,11.30
2022-08-27T06:29:30.726Z,10.70
2022-08-27T06:31:58.354Z,10.93
2022-08-27T06:34:25.374Z,11.13
2022-08-27T06:36:53.778Z,10.07
2022-08-27T06:39:21.376Z,10.45
2022-08-27T06:41:50.342Z,10.15
2022-08-27T06:44:21.582Z,11.07
2022-08-27T06:46:48.963Z,11.13
2022-08-27T06:49:16.441Z,11.13
2022-08-27T06:51:45.834Z,10.93
2022-08-27T06:54:14.574Z,10.70
2022-08-27T06:56:42.598Z,10.82
2022-08-27T06:59:15.099Z,10.75
2022-08-27T07:01:44.741Z,10.25
2022-08-27T07:04:17.434Z,11.30
2022-08-27T07:06:45.448Z,11.85
2022-08-27T07:09:12.461Z,10.75
2022-08-27T07:11:39.540Z,11.05
2022-08-27T07:14:08.298Z,10.93
2022-08-27T07:16:36.484Z,10.77
2022-08-27T07:19:05.821Z,10.23
2022-08-27T07:21:33.937Z,10.65
2022-08-27T07:24:05.080Z,10.65
2022-08-27T07:26:35.127Z,10.88
2022-08-27T07:29:04.454Z,10.48
2022-08-27T07:31:32.581Z,10.90
2022-08-27T07:33:59.439Z,10.77
2022-08-27T07:36:26.733Z,10.27
2022-08-27T07:39:00.705Z,10.48
2022-08-27T07:41:32.863Z,10.48
2022-08-27T07:44:19.273Z,10.52
2022-08-27T07:46:49.076Z,11.40
2022-08-27T07:49:18.574Z,9.55
2022-08-27T07:51:46.622Z,9.52
2022-08-27T07:54:15.062Z,9.55
2022-08-27T07:56:42.586Z,10.38
2022-08-27T07:59:21.814Z,9.98
2022-08-27T08:01:51.352Z,10.00
2022-08-27T08:04:20.434Z,10.52
2022-08-27T08:06:48.836Z,10.52
2022-08-27T08:09:15.773Z,9.60
2022-08-27T08:11:42.751Z,10.07
2022-08-27T08:14:09.834Z,10.30
2022-08-27T08:16:36.822Z,9.98
2022-08-27T08:19:03.855Z,9.88
2022-08-27T08:21:31.035Z,9.23
2022-08-27T08:23:58.282Z,9.35
2022-08-27T08:26:25.205Z,8.88
2022-08-27T08:28:52.396Z,9.50
2022-08-27T08:31:19.762Z,9.05
2022-08-27T08:33:48.744Z,9.23
2022-08-27T08:36:17.955Z,9.25
2022-08-27T08:38:46.273Z,9.18
2022-08-27T08:41:33.928Z,8.98
2022-08-27T08:44:05.818Z,8.57
2022-08-27T08:46:41.315Z,9.57
2022-08-27T08:49:30.343Z,8.40
2022-08-27T08:52:43.056Z,9.32
2022-08-27T08:55:43.866Z,10.15
2022-08-27T08:58:35.865Z,9.55
2022-08-27T09:01:06.316Z,8.88
2022-08-27T09:03:36.425Z,9.55
2022-08-27T09:06:10.570Z,8.80
2022-08-27T09:08:41.783Z,9.48
2022-08-27T09:14:40.590Z,9.25
2022-08-27T09:17:12.501Z,9.20
2022-08-27T09:19:39.726Z,8.80
2022-08-27T09:22:42.975Z,8.90
2022-08-27T09:25:36.007Z,8.50
2022-08-27T09:28:34.061Z,9.50
2022-08-27T09:31:10.018Z,9.18
2022-08-27T09:33:53.587Z,9.43
2022-08-27T09:36:24.698Z,9.18
2022-08-27T09:38:58.827Z,9.48
2022-08-27T09:41:31.988Z,10.38
2022-08-27T09:44:03.646Z,9.38
2022-08-27T09:46:31.349Z,9.85
2022-08-27T09:48:58.342Z,9.80
2022-08-27T09:51:29.711Z,11.13
2022-08-27T09:54:00.009Z,10.77
2022-08-27T09:56:31.441Z,10.48
2022-08-27T09:59:25.274Z,10.10
2022-08-27T10:01:55.590Z,9.60
2022-08-27T10:04:51.280Z,9.88
2022-08-27T10:07:22.517Z,9.15
2022-08-27T10:10:15.972Z,9.60
2022-08-27T10:12:58.569Z,9.85
2022-08-27T10:15:43.196Z,8.85
2022-08-27T10:18:24.828Z,10.32
2022-08-27T10:20:55.068Z,10.05
2022-08-27T10:23:33.529Z,9.52
2022-08-27T10:26:15.408Z,9.68
2022-08-27T10:28:52.626Z,9.93
2022-08-27T10:31:28.170Z,9.65
2022-08-27T10:34:07.293Z,10.30
2022-08-27T10:37:07.441Z,9.65
2022-08-27T10:40:08.121Z,9.60
2022-08-27T10:43:06.545Z,8.55
2022-08-27T10:45:46.225Z,10.18
2022-08-27T10:48:33.646Z,9.68
2022-08-27T10:51:18.962Z,9.52
2022-08-27T10:54:18.487Z,8.57
2022-08-27T10:57:26.115Z,8.13
2022-08-27T11:00:10.790Z,7.93
2022-08-27T11:02:42.193Z,7.18
2022-08-27T11:05:20.467Z,6.78
2022-08-27T11:07:53.612Z,6.97
2022-08-27T11:10:28.368Z,6.78
2022-08-27T11:13:00.070Z,6.65
2022-08-27T11:15:33.078Z,6.85
2022-08-27T11:18:06.034Z,7.15
2022-08-27T11:20:51.039Z,8.48
2022-08-27T11:23:24.252Z,8.15
2022-08-27T11:26:02.650Z,7.60
2022-08-27T11:28:45.184Z,8.60
2022-08-27T11:31:21.407Z,8.60
2022-08-27T11:34:02.614Z,7.45
2022-08-27T11:36:45.663Z,8.57
2022-08-27T11:39:34.846Z,8.52
2022-08-27T11:42:34.861Z,8.85
2022-08-27T11:45:16.775Z,9.30
2022-08-27T11:47:58.820Z,9.38
2022-08-27T11:50:28.785Z,9.75
2022-08-27T11:53:07.215Z,9.33
2022-08-27T11:55:38.027Z,9.23
2022-08-27T12:00:46.907Z,9.57
2022-08-27T12:03:20.297Z,9.02
2022-08-27T12:05:53.533Z,9.93
2022-08-27T12:08:29.730Z,10.35
2022-08-27T12:11:08.903Z,9.65
2022-08-27T12:13:52.935Z,10.60
2022-08-27T12:16:41.383Z,10.30
2022-08-27T12:19:34.490Z,9.70
2022-08-27T12:22:19.339Z,10.18
2022-08-27T12:24:59.076Z,10.35
2022-08-27T12:27:36.241Z,10.40
2022-08-27T12:30:21.968Z,10.55
2022-08-27T12:32:52.783Z,10.35
2022-08-27T12:35:27.152Z,10.65
2022-08-27T12:38:11.343Z,10.02
2022-08-27T12:40:47.326Z,10.35
2022-08-27T12:43:24.968Z,9.40
2022-08-27T12:45:58.419Z,10.13
2022-08-27T12:48:28.657Z,9.75
2022-08-27T12:50:59.799Z,10.57
2022-08-27T12:56:37.979Z,10.45
2022-08-27T12:59:50.033Z,9.57
2022-08-27T13:02:54.788Z,10.52
2022-08-27T13:05:24.031Z,11.07
2022-08-27T13:07:53.396Z,10.68
2022-08-27T13:10:31.513Z,10.20
2022-08-27T13:13:08.874Z,10.07
2022-08-27T13:15:36.641Z,10.15
2022-08-27T13:18:07.770Z,8.65
2022-08-27T13:20:38.235Z,9.52
2022-08-27T13:23:17.305Z,10.07
2022-08-27T13:26:08.735Z,9.00
2022-08-27T13:28:38.650Z,8.20
2022-08-27T13:31:07.839Z,9.80
2022-08-27T13:33:38.908Z,10.80
2022-08-27T13:36:07.036Z,10.27
2022-08-27T13:38:38.688Z,9.30
2022-08-27T13:41:10.540Z,9.52
2022-08-27T13:43:42.484Z,9.88
2022-08-27T13:46:13.899Z,8.65
2022-08-27T13:48:43.382Z,9.70
2022-08-27T13:51:13.286Z,10.07
2022-08-27T13:54:05.561Z,9.60
2022-08-27T13:56:36.472Z,8.35
2022-08-27T14:01:37.443Z,10.60
2022-08-27T14:04:08.934Z,8.70
2022-08-27T14:06:47.511Z,7.93
2022-08-27T14:09:27.900Z,8.52
2022-08-27T14:12:08.186Z,7.70
2022-08-27T14:14:42.258Z,8.03
2022-08-27T14:17:29.474Z,7.95
2022-08-27T14:20:01.385Z,10.70
2022-08-27T14:22:28.699Z,8.93
2022-08-27T14:24:55.903Z,7.70
2022-08-27T14:27:22.953Z,7.97
2022-08-27T14:29:50.252Z,8.18
2022-08-27T14:32:19.179Z,7.55
2022-08-27T14:34:46.760Z,8.15
2022-08-27T14:37:14.814Z,8.38
2022-08-27T14:39:43.525Z,8.90
2022-08-27T14:42:12.632Z,16.60
2022-08-27T14:44:40.333Z,27.95
2022-08-27T14:47:09.603Z,28.67
2022-08-27T14:49:41.584Z,10.18
2022-08-27T14:52:10.288Z,8.02
2022-08-27T14:54:37.630Z,7.45
2022-08-27T14:57:06.719Z,8.18
2022-08-27T14:59:34.670Z,7.82
2022-08-27T15:02:05.090Z,7.15
2022-08-27T15:04:32.460Z,6.95
2022-08-27T15:07:01.488Z,6.63
2022-08-27T15:09:31.602Z,6.82
2022-08-27T15:12:01.285Z,6.97
2022-08-27T15:14:34.982Z,7.13
2022-08-27T15:17:02.704Z,6.70
2022-08-27T15:19:50.007Z,5.15
2022-08-27T15:22:21.140Z,5.93
2022-08-27T15:27:17.527Z,6.20
2022-08-27T15:29:47.397Z,5.82
2022-08-27T15:32:21.781Z,6.32
2022-08-27T15:34:50.741Z,6.40
2022-08-27T15:37:19.187Z,6.72
2022-08-27T15:39:46.798Z,6.22
2022-08-27T15:42:14.380Z,6.65
2022-08-27T15:44:47.870Z,6.22
2022-08-27T15:47:19.324Z,7.40
2022-08-27T15:49:46.629Z,6.90
2022-08-27T15:52:17.418Z,6.65
2022-08-27T15:57:11.822Z,6.15
2022-08-27T15:59:38.832Z,6.57
2022-08-27T16:02:08.977Z,6.70
2022-08-27T16:04:35.795Z,7.03
2022-08-27T16:07:02.649Z,6.50
2022-08-27T16:09:29.673Z,7.72
2022-08-27T16:11:57.339Z,7.00
2022-08-27T16:14:24.277Z,7.78
2022-08-27T16:16:51.979Z,7.32
2022-08-27T16:19:20.650Z,6.18
2022-08-27T16:21:47.930Z,6.30
2022-08-27T16:24:17.311Z,6.97
2022-08-27T16:26:44.821Z,8.05
2022-08-27T16:29:12.147Z,6.65
2022-08-27T16:31:39.365Z,5.97
2022-08-27T16:34:15.442Z,6.88
2022-08-27T16:36:43.336Z,6.38
2022-08-27T16:39:11.295Z,6.18
2022-08-27T16:41:38.647Z,6.80
2022-08-27T16:44:06.839Z,6.05
2022-08-27T16:46:35.205Z,6.32
2022-08-27T16:49:21.013Z,7.18
2022-08-27T16:51:48.478Z,6.95
2022-08-27T16:54:16.915Z,7.38
2022-08-27T16:56:46.347Z,6.07
2022-08-27T16:59:15.922Z,6.40
2022-08-27T17:01:43.660Z,5.78
2022-08-27T17:04:20.316Z,6.00
2022-08-27T17:06:54.969Z,5.95
2022-08-27T17:09:23.915Z,5.88
2022-08-27T17:11:55.194Z,5.88
2022-08-27T17:14:22.865Z,5.35
2022-08-27T17:16:50.280Z,4.88
2022-08-27T17:19:18.790Z,6.00
2022-08-27T17:21:46.038Z,5.15
2022-08-27T17:24:13.485Z,5.53
2022-08-27T17:26:40.478Z,5.75
2022-08-27T17:29:07.656Z,5.72
2022-08-27T17:31:37.594Z,6.00
2022-08-27T17:34:06.467Z,4.88
2022-08-27T17:36:34.963Z,6.03
2022-08-27T17:39:03.082Z,5.82
2022-08-27T17:41:36.911Z,5.90
2022-08-27T17:44:09.615Z,5.10
2022-08-27T17:46:36.923Z,5.85
2022-08-27T17:49:04.898Z,5.50
2022-08-27T17:51:32.111Z,5.90
2022-08-27T17:54:01.103Z,5.50
2022-08-27T17:56:29.642Z,5.60
2022-08-27T17:58:57.336Z,5.00
2022-08-27T18:01:32.168Z,5.93
2022-08-27T18:03:59.800Z,4.93
2022-08-27T18:06:27.746Z,5.93
2022-08-27T18:08:55.127Z,5.97
2022-08-27T18:11:23.388Z,5.57
2022-08-27T18:13:54.112Z,5.65
2022-08-27T18:18:50.524Z,5.30
2022-08-27T18:21:25.174Z,5.35
2022-08-27T18:23:54.431Z,5.30
2022-08-27T18:26:25.752Z,6.07
2022-08-27T18:31:29.026Z,5.78
2022-08-27T18:33:58.740Z,4.80
2022-08-27T18:36:27.238Z,4.50
2022-08-27T18:38:55.011Z,5.45
2022-08-27T18:41:28.530Z,5.38
2022-08-27T18:43:56.218Z,5.28
2022-08-27T18:46:23.060Z,5.50
2022-08-27T18:48:51.647Z,6.50
2022-08-27T18:51:21.000Z,6.15
2022-08-27T18:53:49.561Z,5.13
2022-08-27T18:56:20.720Z,5.03
2022-08-27T18:58:48.571Z,5.25
2022-08-27T19:01:20.089Z,4.35
2022-08-27T19:03:50.058Z,5.05
2022-08-27T19:06:20.445Z,5.45
2022-08-27T19:08:49.370Z,5.63
2022-08-27T19:11:16.729Z,4.80
2022-08-27T19:13:43.997Z,5.40
2022-08-27T19:16:32.002Z,5.40
2022-08-27T19:18:59.183Z,4.95
2022-08-27T19:21:27.027Z,4.97
2022-08-27T19:23:54.120Z,4.57
2022-08-27T19:26:23.564Z,5.95
2022-08-27T19:28:50.769Z,5.15
2022-08-27T19:31:17.805Z,4.93
2022-08-27T19:33:45.199Z,5.28
2022-08-27T19:36:15.865Z,5.57
2022-08-27T19:38:44.492Z,4.53
2022-08-27T19:41:12.371Z,5.18
2022-08-27T19:43:39.298Z,5.05
2022-08-27T19:46:13.158Z,5.47
2022-08-27T19:48:40.322Z,5.13
2022-08-27T19:51:07.269Z,5.10
2022-08-27T19:53:35.470Z,6.50
2022-08-27T19:56:03.540Z,5.53
2022-08-27T19:58:31.024Z,5.55
2022-08-27T20:00:57.999Z,5.40
2022-08-27T20:03:25.381Z,5.57
2022-08-27T20:05:53.015Z,5.63
2022-08-27T20:08:19.913Z,5.72
2022-08-27T20:10:47.151Z,5.40
2022-08-27T20:13:14.264Z,5.63
2022-08-27T20:15:41.395Z,6.18
2022-08-27T20:18:10.048Z,4.93
2022-08-27T20:20:37.630Z,5.85
2022-08-27T20:23:05.247Z,4.78
2022-08-27T20:25:34.248Z,5.50
2022-08-27T20:28:16.399Z,5.45
2022-08-27T20:30:49.040Z,5.50
2022-08-27T20:33:16.741Z,5.10
2022-08-27T20:35:44.885Z,5.10
2022-08-27T20:38:12.268Z,5.55
2022-08-27T20:40:39.339Z,5.68
2022-08-27T20:43:06.207Z,5.35
2022-08-27T20:45:33.499Z,5.18
2022-08-27T20:48:00.965Z,5.43
2022-08-27T20:50:31.341Z,5.00
2022-08-27T20:52:58.755Z,5.30
2022-08-27T20:55:26.001Z,5.55
2022-08-27T20:58:11.346Z,5.80
2022-08-27T21:00:41.011Z,5.47
2022-08-27T21:03:10.309Z,6.15
2022-08-27T21:05:37.579Z,6.68
2022-08-27T21:08:06.361Z,5.47
2022-08-27T21:10:34.281Z,5.50
2022-08-27T21:13:04.489Z,5.03
2022-08-27T21:15:32.633Z,5.80
2022-08-27T21:17:59.648Z,5.65
2022-08-27T21:20:26.581Z,6.43
2022-08-27T21:22:56.041Z,5.05
2022-08-27T21:25:25.202Z,5.63
2022-08-27T21:27:53.157Z,5.70
2022-08-27T21:30:21.512Z,5.63
2022-08-27T21:32:49.062Z,5.43
2022-08-27T21:35:16.383Z,6.65
2022-08-27T21:37:43.796Z,5.72
2022-08-27T21:40:11.173Z,6.63
2022-08-27T21:42:38.306Z,6.70
2022-08-27T21:45:06.176Z,5.95
2022-08-27T21:47:33.130Z,5.68
2022-08-27T21:50:00.220Z,6.20
2022-08-27T21:52:27.477Z,6.18
2022-08-27T21:54:54.397Z,6.22
2022-08-27T21:57:21.339Z,6.18
2022-08-27T21:59:50.360Z,6.10
2022-08-27T22:05:07.996Z,6.30
2022-08-27T22:07:35.110Z,6.45
2022-08-27T22:10:02.616Z,6.55
2022-08-27T22:12:32.515Z,5.30
2022-08-27T22:17:28.660Z,5.90
2022-08-27T22:19:58.263Z,6.18
2022-08-27T22:22:30.756Z,6.50
2022-08-27T22:24:59.499Z,5.75
2022-08-27T22:27:26.922Z,6.40
2022-08-27T22:29:54.817Z,5.97
2022-08-27T22:32:22.697Z,5.95
2022-08-27T22:34:49.771Z,6.15
2022-08-27T22:37:18.754Z,6.72
2022-08-27T22:39:48.596Z,6.65
2022-08-27T22:42:17.821Z,6.95
2022-08-27T22:44:47.023Z,5.93
2022-08-27T22:47:16.492Z,7.13
2022-08-27T22:49:44.506Z,6.50
2022-08-27T22:52:12.975Z,6.05
2022-08-27T22:54:41.099Z,6.75
2022-08-27T22:57:10.554Z,6.88
2022-08-27T22:59:39.135Z,5.97
2022-08-27T23:02:09.444Z,6.57
2022-08-27T23:04:53.976Z,7.97
2022-08-27T23:07:22.785Z,7.32
2022-08-27T23:09:52.808Z,7.35
2022-08-27T23:12:20.535Z,6.87
2022-08-27T23:14:47.883Z,7.15
2022-08-27T23:17:18.651Z,7.68
2022-08-27T23:19:50.034Z,7.30
2022-08-27T23:22:19.896Z,7.15
2022-08-27T23:25:08.086Z,7.13
2022-08-27T23:27:35.585Z,6.90
2022-08-27T23:30:04.468Z,6.32
2022-08-27T23:32:33.989Z,6.70
2022-08-27T23:35:02.454Z,6.47
2022-08-27T23:37:30.512Z,6.43
2022-08-27T23:39:58.161Z,6.35
2022-08-27T23:42:25.475Z,5.78
2022-08-27T23:44:52.657Z,6.30
2022-08-27T23:47:20.406Z,6.15
2022-08-27T23:49:48.600Z,7.35
2022-08-27T23:52:17.150Z,6.03
2022-08-27T23:54:44.994Z,6.60
2022-08-27T23:57:12.070Z,6.60
2022-08-27T23:59:39.144Z,6.25
